CEB106 RPLL-RPVE
Flight info
| Callsign | CEB106 |
|---|---|
| Flight time | N/A |
| Altitude | 24000 |
| Route | VERDE2R VERDE W24 TAPER TAPER7B |
| Aircraft | A320/M-SDE3FGHIRWY/LB1 |
Departure
| Time | 2026-04-30 14:54 |
|---|---|
| Airport | Ninoy Aquino International Airport (RPLL) |
Arrival
| Time | N/A |
|---|---|
| Airport | Godofredo P. Ramos Airport (RPVE) |
| Time | Latitude | Longitude | Altitude | Speed | Heading |
|---|---|---|---|---|---|
| 2026-04-30 14:39 | 14.50862 | 121.01337 | 68 ft | 0 kts | 329° |
| 2026-04-30 14:45 | 14.50852 | 121.01343 | 60 ft | 2 kts | 329° |
| 2026-04-30 14:46 | 14.50839 | 121.01351 | 62 ft | 2 kts | 329° |
| 2026-04-30 14:46 | 14.50825 | 121.01360 | 59 ft | 2 kts | 330° |
| 2026-04-30 14:46 | 14.50811 | 121.01368 | 64 ft | 2 kts | 341° |
| 2026-04-30 14:46 | 14.50800 | 121.01370 | 64 ft | 2 kts | 338° |
| 2026-04-30 14:47 | 14.50790 | 121.01387 | 59 ft | 2 kts | 246° |
| 2026-04-30 14:47 | 14.50793 | 121.01394 | 59 ft | 0 kts | 239° |
| 2026-04-30 14:48 | 14.50787 | 121.01384 | 59 ft | 7 kts | 239° |
| 2026-04-30 14:49 | 14.50746 | 121.01320 | 66 ft | 14 kts | 215° |
| 2026-04-30 14:49 | 14.50678 | 121.01315 | 61 ft | 11 kts | 196° |
| 2026-04-30 14:49 | 14.50614 | 121.01222 | 66 ft | 20 kts | 240° |
| 2026-04-30 14:49 | 14.50544 | 121.01096 | 62 ft | 21 kts | 240° |
| 2026-04-30 14:50 | 14.50387 | 121.00813 | 63 ft | 25 kts | 240° |
| 2026-04-30 14:50 | 14.50296 | 121.00651 | 58 ft | 27 kts | 240° |
| 2026-04-30 14:51 | 14.50096 | 121.00290 | 59 ft | 31 kts | 239° |
| 2026-04-30 14:51 | 14.49987 | 121.00096 | 63 ft | 31 kts | 241° |
| 2026-04-30 14:51 | 14.49874 | 120.99968 | 63 ft | 0 kts | 161° |
| 2026-04-30 14:52 | 14.49822 | 121.00075 | 66 ft | 13 kts | 59° |
| 2026-04-30 14:52 | 14.49903 | 121.00220 | 62 ft | 46 kts | 60° |
| 2026-04-30 14:53 | 14.50698 | 121.01646 | 89 ft | 169 kts | 59° |
| 2026-04-30 14:53 | 14.51255 | 121.02643 | 510 ft | 185 kts | 62° |
| 2026-04-30 14:54 | 14.52616 | 121.05158 | 1664 ft | 221 kts | 60° |
| 2026-04-30 14:54 | 14.54305 | 121.08180 | 2976 ft | 255 kts | 60° |
| 2026-04-30 14:55 | 14.55816 | 121.11181 | 4692 ft | 261 kts | 75° |
| 2026-04-30 14:55 | 14.55962 | 121.13060 | 5523 ft | 268 kts | 98° |
| 2026-04-30 14:55 | 14.54042 | 121.16120 | 7119 ft | 282 kts | 148° |
| 2026-04-30 14:56 | 14.50131 | 121.16552 | 8845 ft | 294 kts | 186° |
| 2026-04-30 14:56 | 14.46032 | 121.15978 | 10356 ft | 309 kts | 186° |
| 2026-04-30 14:57 | 14.43819 | 121.15671 | 10621 ft | 333 kts | 186° |
| 2026-04-30 14:57 | 14.38983 | 121.15014 | 11501 ft | 361 kts | 186° |
| 2026-04-30 14:58 | 14.33938 | 121.14335 | 12883 ft | 369 kts | 186° |
| 2026-04-30 14:58 | 14.32249 | 121.14110 | 13334 ft | 371 kts | 186° |
| 2026-04-30 14:58 | 14.26191 | 121.13306 | 14790 ft | 379 kts | 186° |
| 2026-04-30 14:59 | 14.20954 | 121.12606 | 16007 ft | 385 kts | 186° |
| 2026-04-30 15:00 | 14.13808 | 121.11649 | 17560 ft | 393 kts | 186° |
| 2026-04-30 15:00 | 14.08312 | 121.10912 | 18638 ft | 399 kts | 186° |
| 2026-04-30 15:01 | 14.04490 | 121.10396 | 19305 ft | 403 kts | 186° |